sensor_id;sensor_type;location;lat;lon;timestamp;temperature;humidity
25640;DHT22;13497;48.322;16.204;2022-10-31T00:01:13;12.60;99.90
25640;DHT22;13497;48.322;16.204;2022-10-31T00:03:39;12.70;99.90
25640;DHT22;13497;48.322;16.204;2022-10-31T00:06:05;12.70;99.90
25640;DHT22;13497;48.322;16.204;2022-10-31T00:08:30;12.80;99.90
25640;DHT22;13497;48.322;16.204;2022-10-31T00:10:56;12.70;99.90
25640;DHT22;13497;48.322;16.204;2022-10-31T00:13:21;12.60;99.90
25640;DHT22;13497;48.322;16.204;2022-10-31T00:15:47;12.70;99.90
25640;DHT22;13497;48.322;16.204;2022-10-31T00:18:13;12.60;99.90
25640;DHT22;13497;48.322;16.204;2022-10-31T00:20:39;12.60;99.90
25640;DHT22;13497;48.322;16.204;2022-10-31T00:23:05;12.60;99.90
25640;DHT22;13497;48.322;16.204;2022-10-31T00:25:35;12.60;99.90
25640;DHT22;13497;48.322;16.204;2022-10-31T00:28:02;12.60;99.90
25640;DHT22;13497;48.322;16.204;2022-10-31T00:30:28;12.60;99.90
25640;DHT22;13497;48.322;16.204;2022-10-31T00:32:53;12.60;99.90
25640;DHT22;13497;48.322;16.204;2022-10-31T00:35:19;12.50;99.90
25640;DHT22;13497;48.322;16.204;2022-10-31T00:37:44;12.50;99.90
25640;DHT22;13497;48.322;16.204;2022-10-31T00:40:10;12.50;99.90
25640;DHT22;13497;48.322;16.204;2022-10-31T00:42:36;12.50;99.90
25640;DHT22;13497;48.322;16.204;2022-10-31T00:45:02;12.60;99.90
25640;DHT22;13497;48.322;16.204;2022-10-31T00:47:28;12.50;99.90
25640;DHT22;13497;48.322;16.204;2022-10-31T00:49:56;12.50;99.90
25640;DHT22;13497;48.322;16.204;2022-10-31T00:52:22;12.40;99.90
25640;DHT22;13497;48.322;16.204;2022-10-31T00:54:47;12.50;99.90
25640;DHT22;13497;48.322;16.204;2022-10-31T00:57:13;12.40;99.90
25640;DHT22;13497;48.322;16.204;2022-10-31T00:59:38;12.50;99.90
25640;DHT22;13497;48.322;16.204;2022-10-31T01:02:04;12.50;99.90
25640;DHT22;13497;48.322;16.204;2022-10-31T01:04:29;12.50;99.90
25640;DHT22;13497;48.322;16.204;2022-10-31T01:06:55;12.50;99.90
25640;DHT22;13497;48.322;16.204;2022-10-31T01:09:21;12.50;99.90
25640;DHT22;13497;48.322;16.204;2022-10-31T01:11:46;12.50;99.90
25640;DHT22;13497;48.322;16.204;2022-10-31T01:14:12;12.40;99.90
25640;DHT22;13497;48.322;16.204;2022-10-31T01:16:37;12.40;99.90
25640;DHT22;13497;48.322;16.204;2022-10-31T01:19:03;12.40;99.90
25640;DHT22;13497;48.322;16.204;2022-10-31T01:21:29;12.40;99.90
25640;DHT22;13497;48.322;16.204;2022-10-31T01:23:56;12.30;99.90
25640;DHT22;13497;48.322;16.204;2022-10-31T01:26:23;12.30;99.90
25640;DHT22;13497;48.322;16.204;2022-10-31T01:28:54;12.30;99.90
25640;DHT22;13497;48.322;16.204;2022-10-31T01:31:23;12.20;99.90
25640;DHT22;13497;48.322;16.204;2022-10-31T01:33:48;12.20;99.90
25640;DHT22;13497;48.322;16.204;2022-10-31T01:36:23;12.20;99.90
25640;DHT22;13497;48.322;16.204;2022-10-31T01:38:51;12.10;99.90
25640;DHT22;13497;48.322;16.204;2022-10-31T01:41:22;12.10;99.90
25640;DHT22;13497;48.322;16.204;2022-10-31T01:44:03;12.10;99.90
25640;DHT22;13497;48.322;16.204;2022-10-31T01:46:52;12.10;99.90
25640;DHT22;13497;48.322;16.204;2022-10-31T01:49:34;12.10;99.90
25640;DHT22;13497;48.322;16.204;2022-10-31T01:54:51;12.10;99.90
25640;DHT22;13497;48.322;16.204;2022-10-31T01:57:20;12.10;99.90
25640;DHT22;13497;48.322;16.204;2022-10-31T01:59:49;12.00;99.90
25640;DHT22;13497;48.322;16.204;2022-10-31T02:02:17;11.90;99.90
25640;DHT22;13497;48.322;16.204;2022-10-31T02:04:44;11.90;99.90
25640;DHT22;13497;48.322;16.204;2022-10-31T02:07:14;11.90;99.90
25640;DHT22;13497;48.322;16.204;2022-10-31T02:09:42;11.90;99.90
25640;DHT22;13497;48.322;16.204;2022-10-31T02:12:10;11.90;99.90
25640;DHT22;13497;48.322;16.204;2022-10-31T02:14:36;11.90;99.90
25640;DHT22;13497;48.322;16.204;2022-10-31T02:17:05;11.90;99.90
25640;DHT22;13497;48.322;16.204;2022-10-31T02:22:34;12.00;99.90
25640;DHT22;13497;48.322;16.204;2022-10-31T02:25:08;11.90;99.90
25640;DHT22;13497;48.322;16.204;2022-10-31T02:30:20;11.90;99.90
25640;DHT22;13497;48.322;16.204;2022-10-31T02:40:28;12.00;99.90
25640;DHT22;13497;48.322;16.204;2022-10-31T02:42:59;12.10;99.90
25640;DHT22;13497;48.322;16.204;2022-10-31T02:45:42;12.00;99.90
25640;DHT22;13497;48.322;16.204;2022-10-31T02:48:13;12.10;99.90
25640;DHT22;13497;48.322;16.204;2022-10-31T02:50:42;12.10;99.90
25640;DHT22;13497;48.322;16.204;2022-10-31T02:53:09;12.10;99.90
25640;DHT22;13497;48.322;16.204;2022-10-31T02:58:05;12.00;99.90
25640;DHT22;13497;48.322;16.204;2022-10-31T03:00:41;12.00;99.90
25640;DHT22;13497;48.322;16.204;2022-10-31T03:03:19;12.10;99.90
25640;DHT22;13497;48.322;16.204;2022-10-31T03:05:58;12.00;99.90
25640;DHT22;13497;48.322;16.204;2022-10-31T03:11:02;11.90;99.90
25640;DHT22;13497;48.322;16.204;2022-10-31T03:16:15;11.90;99.90
25640;DHT22;13497;48.322;16.204;2022-10-31T03:18:51;11.80;99.90
25640;DHT22;13497;48.322;16.204;2022-10-31T03:21:24;11.80;99.90
25640;DHT22;13497;48.322;16.204;2022-10-31T03:23:51;11.80;99.90
25640;DHT22;13497;48.322;16.204;2022-10-31T03:26:20;11.80;99.90
25640;DHT22;13497;48.322;16.204;2022-10-31T03:28:53;11.80;99.90
25640;DHT22;13497;48.322;16.204;2022-10-31T03:31:22;11.80;99.90
25640;DHT22;13497;48.322;16.204;2022-10-31T03:33:51;11.70;99.90
25640;DHT22;13497;48.322;16.204;2022-10-31T03:36:18;11.80;99.90
25640;DHT22;13497;48.322;16.204;2022-10-31T03:38:45;11.90;99.90
25640;DHT22;13497;48.322;16.204;2022-10-31T03:41:18;11.90;99.90
25640;DHT22;13497;48.322;16.204;2022-10-31T03:43:52;11.90;99.90
25640;DHT22;13497;48.322;16.204;2022-10-31T03:46:19;11.90;99.90
25640;DHT22;13497;48.322;16.204;2022-10-31T03:48:45;12.00;99.90
25640;DHT22;13497;48.322;16.204;2022-10-31T03:51:31;12.00;99.90
25640;DHT22;13497;48.322;16.204;2022-10-31T03:54:11;12.00;99.90
25640;DHT22;13497;48.322;16.204;2022-10-31T03:56:52;11.90;99.90
25640;DHT22;13497;48.322;16.204;2022-10-31T03:59:26;11.90;99.90
25640;DHT22;13497;48.322;16.204;2022-10-31T04:01:58;12.00;99.90
25640;DHT22;13497;48.322;16.204;2022-10-31T04:04:26;12.00;99.90
25640;DHT22;13497;48.322;16.204;2022-10-31T04:06:52;12.10;99.90
25640;DHT22;13497;48.322;16.204;2022-10-31T04:09:20;12.10;99.90
25640;DHT22;13497;48.322;16.204;2022-10-31T04:11:50;12.10;99.90
25640;DHT22;13497;48.322;16.204;2022-10-31T04:14:16;12.20;99.90
25640;DHT22;13497;48.322;16.204;2022-10-31T04:16:43;12.10;99.90
25640;DHT22;13497;48.322;16.204;2022-10-31T04:19:13;12.10;99.90
25640;DHT22;13497;48.322;16.204;2022-10-31T04:21:40;12.10;99.90
25640;DHT22;13497;48.322;16.204;2022-10-31T04:24:09;12.10;99.90
25640;DHT22;13497;48.322;16.204;2022-10-31T04:26:34;12.10;99.90
25640;DHT22;13497;48.322;16.204;2022-10-31T04:29:00;12.00;99.90
25640;DHT22;13497;48.322;16.204;2022-10-31T04:31:26;11.90;99.90
25640;DHT22;13497;48.322;16.204;2022-10-31T04:33:51;11.90;99.90
25640;DHT22;13497;48.322;16.204;2022-10-31T04:36:17;11.90;99.90
25640;DHT22;13497;48.322;16.204;2022-10-31T04:38:43;11.90;99.90
25640;DHT22;13497;48.322;16.204;2022-10-31T04:41:08;11.90;99.90
25640;DHT22;13497;48.322;16.204;2022-10-31T04:43:34;11.90;99.90
25640;DHT22;13497;48.322;16.204;2022-10-31T04:45:59;11.90;99.90
25640;DHT22;13497;48.322;16.204;2022-10-31T04:48:25;11.90;99.90
25640;DHT22;13497;48.322;16.204;2022-10-31T04:50:51;12.00;99.90
25640;DHT22;13497;48.322;16.204;2022-10-31T04:53:17;12.00;99.90
25640;DHT22;13497;48.322;16.204;2022-10-31T04:55:42;11.90;99.90
25640;DHT22;13497;48.322;16.204;2022-10-31T04:58:08;11.90;99.90
25640;DHT22;13497;48.322;16.204;2022-10-31T05:00:34;11.90;99.90
25640;DHT22;13497;48.322;16.204;2022-10-31T05:02:59;11.90;99.90
25640;DHT22;13497;48.322;16.204;2022-10-31T05:05:30;11.90;99.90
25640;DHT22;13497;48.322;16.204;2022-10-31T05:07:57;12.00;99.90
25640;DHT22;13497;48.322;16.204;2022-10-31T05:10:24;12.00;99.90
25640;DHT22;13497;48.322;16.204;2022-10-31T05:12:58;12.00;99.90
25640;DHT22;13497;48.322;16.204;2022-10-31T05:15:25;12.00;99.90
25640;DHT22;13497;48.322;16.204;2022-10-31T05:17:51;12.00;99.90
25640;DHT22;13497;48.322;16.204;2022-10-31T05:20:19;11.90;99.90
25640;DHT22;13497;48.322;16.204;2022-10-31T05:22:52;11.90;99.90
25640;DHT22;13497;48.322;16.204;2022-10-31T05:25:19;11.90;99.90
25640;DHT22;13497;48.322;16.204;2022-10-31T05:27:47;11.90;99.90
25640;DHT22;13497;48.322;16.204;2022-10-31T05:30:15;11.90;99.90
25640;DHT22;13497;48.322;16.204;2022-10-31T05:32:43;11.80;99.90
25640;DHT22;13497;48.322;16.204;2022-10-31T05:35:12;11.80;99.90
25640;DHT22;13497;48.322;16.204;2022-10-31T05:37:38;11.80;99.90
25640;DHT22;13497;48.322;16.204;2022-10-31T05:40:06;11.80;99.90
25640;DHT22;13497;48.322;16.204;2022-10-31T05:42:32;11.90;99.90
25640;DHT22;13497;48.322;16.204;2022-10-31T05:44:57;11.90;99.90
25640;DHT22;13497;48.322;16.204;2022-10-31T05:47:23;11.90;99.90
25640;DHT22;13497;48.322;16.204;2022-10-31T05:49:49;11.90;99.90
25640;DHT22;13497;48.322;16.204;2022-10-31T05:52:15;11.90;99.90
25640;DHT22;13497;48.322;16.204;2022-10-31T05:54:40;11.90;99.90
25640;DHT22;13497;48.322;16.204;2022-10-31T05:57:06;12.00;99.90
25640;DHT22;13497;48.322;16.204;2022-10-31T05:59:32;12.00;99.90
25640;DHT22;13497;48.322;16.204;2022-10-31T06:01:58;12.00;99.90
25640;DHT22;13497;48.322;16.204;2022-10-31T06:04:23;11.90;99.90
25640;DHT22;13497;48.322;16.204;2022-10-31T06:06:49;11.90;99.90
25640;DHT22;13497;48.322;16.204;2022-10-31T06:09:14;11.90;99.90
25640;DHT22;13497;48.322;16.204;2022-10-31T06:11:40;11.90;99.90
25640;DHT22;13497;48.322;16.204;2022-10-31T06:14:06;12.00;99.90
25640;DHT22;13497;48.322;16.204;2022-10-31T06:16:32;12.00;99.90
25640;DHT22;13497;48.322;16.204;2022-10-31T06:18:57;12.10;99.90
25640;DHT22;13497;48.322;16.204;2022-10-31T06:21:23;12.10;99.90
25640;DHT22;13497;48.322;16.204;2022-10-31T06:23:48;12.20;99.90
25640;DHT22;13497;48.322;16.204;2022-10-31T06:26:14;12.20;99.90
25640;DHT22;13497;48.322;16.204;2022-10-31T06:28:40;12.20;99.90
25640;DHT22;13497;48.322;16.204;2022-10-31T06:31:06;12.20;99.90
25640;DHT22;13497;48.322;16.204;2022-10-31T06:33:33;12.20;99.90
25640;DHT22;13497;48.322;16.204;2022-10-31T06:35:59;12.20;99.90
25640;DHT22;13497;48.322;16.204;2022-10-31T06:38:26;12.20;99.90
25640;DHT22;13497;48.322;16.204;2022-10-31T06:40:52;12.20;99.90
25640;DHT22;13497;48.322;16.204;2022-10-31T06:43:19;12.20;99.90
25640;DHT22;13497;48.322;16.204;2022-10-31T06:45:44;12.20;99.90
25640;DHT22;13497;48.322;16.204;2022-10-31T06:48:10;12.20;99.90
25640;DHT22;13497;48.322;16.204;2022-10-31T06:50:36;12.20;99.90
25640;DHT22;13497;48.322;16.204;2022-10-31T06:53:02;12.20;99.90
25640;DHT22;13497;48.322;16.204;2022-10-31T06:55:30;12.30;99.90
25640;DHT22;13497;48.322;16.204;2022-10-31T06:57:58;12.30;99.90
25640;DHT22;13497;48.322;16.204;2022-10-31T07:00:26;12.30;99.90
25640;DHT22;13497;48.322;16.204;2022-10-31T07:03:00;12.40;99.90
25640;DHT22;13497;48.322;16.204;2022-10-31T07:05:27;12.40;99.90
25640;DHT22;13497;48.322;16.204;2022-10-31T07:07:56;12.40;99.90
25640;DHT22;13497;48.322;16.204;2022-10-31T07:10:23;12.40;99.90
25640;DHT22;13497;48.322;16.204;2022-10-31T07:12:53;12.40;99.90
25640;DHT22;13497;48.322;16.204;2022-10-31T07:15:19;12.40;99.90
25640;DHT22;13497;48.322;16.204;2022-10-31T07:17:44;12.50;99.90
25640;DHT22;13497;48.322;16.204;2022-10-31T07:20:10;12.50;99.90
25640;DHT22;13497;48.322;16.204;2022-10-31T07:22:37;12.50;99.90
25640;DHT22;13497;48.322;16.204;2022-10-31T07:25:02;12.60;99.90
25640;DHT22;13497;48.322;16.204;2022-10-31T07:27:28;12.70;99.90
25640;DHT22;13497;48.322;16.204;2022-10-31T07:30:00;12.80;99.90
25640;DHT22;13497;48.322;16.204;2022-10-31T07:32:27;12.80;99.90
25640;DHT22;13497;48.322;16.204;2022-10-31T07:34:52;12.80;99.90
25640;DHT22;13497;48.322;16.204;2022-10-31T07:37:18;12.80;99.90
25640;DHT22;13497;48.322;16.204;2022-10-31T07:39:44;12.80;99.90
25640;DHT22;13497;48.322;16.204;2022-10-31T07:42:09;12.80;99.90
25640;DHT22;13497;48.322;16.204;2022-10-31T07:44:35;12.90;99.90
25640;DHT22;13497;48.322;16.204;2022-10-31T07:47:01;13.00;99.90
25640;DHT22;13497;48.322;16.204;2022-10-31T07:49:27;12.90;99.90
25640;DHT22;13497;48.322;16.204;2022-10-31T07:51:52;12.80;99.90
25640;DHT22;13497;48.322;16.204;2022-10-31T07:54:18;12.70;99.90
25640;DHT22;13497;48.322;16.204;2022-10-31T07:56:44;12.70;99.90
25640;DHT22;13497;48.322;16.204;2022-10-31T07:59:09;12.60;99.90
25640;DHT22;13497;48.322;16.204;2022-10-31T08:01:36;12.70;99.90
25640;DHT22;13497;48.322;16.204;2022-10-31T08:04:02;12.70;99.90
25640;DHT22;13497;48.322;16.204;2022-10-31T08:06:27;12.70;99.90
25640;DHT22;13497;48.322;16.204;2022-10-31T08:08:54;12.80;99.90
25640;DHT22;13497;48.322;16.204;2022-10-31T08:11:20;12.80;99.90
25640;DHT22;13497;48.322;16.204;2022-10-31T08:13:46;12.80;99.90
25640;DHT22;13497;48.322;16.204;2022-10-31T08:16:12;12.70;99.90
25640;DHT22;13497;48.322;16.204;2022-10-31T08:18:37;12.80;99.90
25640;DHT22;13497;48.322;16.204;2022-10-31T08:21:03;12.80;99.90
25640;DHT22;13497;48.322;16.204;2022-10-31T08:23:30;12.80;99.90
25640;DHT22;13497;48.322;16.204;2022-10-31T08:25:55;12.70;99.90
25640;DHT22;13497;48.322;16.204;2022-10-31T08:28:22;12.80;99.90
25640;DHT22;13497;48.322;16.204;2022-10-31T08:30:48;12.80;99.90
25640;DHT22;13497;48.322;16.204;2022-10-31T08:33:16;12.80;99.90
25640;DHT22;13497;48.322;16.204;2022-10-31T08:35:44;12.90;99.90
25640;DHT22;13497;48.322;16.204;2022-10-31T08:38:11;12.90;99.90
25640;DHT22;13497;48.322;16.204;2022-10-31T08:40:37;13.00;99.90
25640;DHT22;13497;48.322;16.204;2022-10-31T08:45:33;13.00;99.90
25640;DHT22;13497;48.322;16.204;2022-10-31T08:48:01;13.00;99.90
25640;DHT22;13497;48.322;16.204;2022-10-31T08:50:27;12.90;99.90
25640;DHT22;13497;48.322;16.204;2022-10-31T08:52:53;13.00;99.90
25640;DHT22;13497;48.322;16.204;2022-10-31T08:55:24;13.10;99.90
25640;DHT22;13497;48.322;16.204;2022-10-31T08:57:55;13.10;99.90
25640;DHT22;13497;48.322;16.204;2022-10-31T09:00:21;13.10;99.90
25640;DHT22;13497;48.322;16.204;2022-10-31T09:02:47;13.20;99.90
25640;DHT22;13497;48.322;16.204;2022-10-31T09:05:12;13.30;99.90
25640;DHT22;13497;48.322;16.204;2022-10-31T09:07:38;13.20;99.90
25640;DHT22;13497;48.322;16.204;2022-10-31T09:10:04;13.20;99.90
25640;DHT22;13497;48.322;16.204;2022-10-31T09:12:29;13.20;99.90
25640;DHT22;13497;48.322;16.204;2022-10-31T09:14:55;13.30;99.90
25640;DHT22;13497;48.322;16.204;2022-10-31T09:17:23;13.30;99.90
25640;DHT22;13497;48.322;16.204;2022-10-31T09:19:48;13.30;99.90
25640;DHT22;13497;48.322;16.204;2022-10-31T09:22:14;13.30;99.90
25640;DHT22;13497;48.322;16.204;2022-10-31T09:24:39;13.20;99.90
25640;DHT22;13497;48.322;16.204;2022-10-31T09:27:05;13.20;99.90
25640;DHT22;13497;48.322;16.204;2022-10-31T09:29:30;13.20;99.90
25640;DHT22;13497;48.322;16.204;2022-10-31T09:31:57;13.30;99.90
25640;DHT22;13497;48.322;16.204;2022-10-31T09:34:22;13.30;99.90
25640;DHT22;13497;48.322;16.204;2022-10-31T09:36:48;13.40;99.90
25640;DHT22;13497;48.322;16.204;2022-10-31T09:39:14;13.40;99.90
25640;DHT22;13497;48.322;16.204;2022-10-31T09:41:52;13.40;99.90
25640;DHT22;13497;48.322;16.204;2022-10-31T09:44:38;13.30;99.90
25640;DHT22;13497;48.322;16.204;2022-10-31T09:50:31;13.50;99.90
25640;DHT22;13497;48.322;16.204;2022-10-31T09:53:04;13.50;99.90
25640;DHT22;13497;48.322;16.204;2022-10-31T09:55:41;13.50;99.90
25640;DHT22;13497;48.322;16.204;2022-10-31T09:58:17;13.60;99.90
25640;DHT22;13497;48.322;16.204;2022-10-31T10:00:45;13.60;99.90
25640;DHT22;13497;48.322;16.204;2022-10-31T10:03:34;13.50;99.90
25640;DHT22;13497;48.322;16.204;2022-10-31T10:06:04;13.60;99.90
25640;DHT22;13497;48.322;16.204;2022-10-31T10:08:32;13.70;99.90
25640;DHT22;13497;48.322;16.204;2022-10-31T10:19:48;13.90;99.90
25640;DHT22;13497;48.322;16.204;2022-10-31T10:25:15;14.00;99.90
25640;DHT22;13497;48.322;16.204;2022-10-31T10:30:41;13.90;99.90
25640;DHT22;13497;48.322;16.204;2022-10-31T10:33:14;13.90;99.90
25640;DHT22;13497;48.322;16.204;2022-10-31T10:35:43;13.90;99.90
25640;DHT22;13497;48.322;16.204;2022-10-31T10:40:40;14.00;99.90
25640;DHT22;13497;48.322;16.204;2022-10-31T10:48:56;14.00;99.90
25640;DHT22;13497;48.322;16.204;2022-10-31T10:51:37;14.10;99.90
25640;DHT22;13497;48.322;16.204;2022-10-31T10:57:09;14.30;99.90
25640;DHT22;13497;48.322;16.204;2022-10-31T10:59:37;14.40;99.90
25640;DHT22;13497;48.322;16.204;2022-10-31T11:02:08;14.40;99.90
25640;DHT22;13497;48.322;16.204;2022-10-31T11:04:40;14.30;99.90
25640;DHT22;13497;48.322;16.204;2022-10-31T11:07:09;14.20;99.90
25640;DHT22;13497;48.322;16.204;2022-10-31T11:09:37;14.20;99.90
25640;DHT22;13497;48.322;16.204;2022-10-31T11:12:24;14.30;99.90
25640;DHT22;13497;48.322;16.204;2022-10-31T11:15:00;14.30;99.90
25640;DHT22;13497;48.322;16.204;2022-10-31T11:17:38;14.50;99.90
25640;DHT22;13497;48.322;16.204;2022-10-31T11:22:44;14.60;99.90
25640;DHT22;13497;48.322;16.204;2022-10-31T11:25:27;14.60;99.90
25640;DHT22;13497;48.322;16.204;2022-10-31T11:30:26;14.40;99.90
25640;DHT22;13497;48.322;16.204;2022-10-31T11:32:51;14.40;99.90
25640;DHT22;13497;48.322;16.204;2022-10-31T11:35:21;14.50;99.90
25640;DHT22;13497;48.322;16.204;2022-10-31T11:37:49;14.40;99.90
25640;DHT22;13497;48.322;16.204;2022-10-31T11:40:24;14.50;99.90
25640;DHT22;13497;48.322;16.204;2022-10-31T11:42:51;14.60;99.90
25640;DHT22;13497;48.322;16.204;2022-10-31T11:47:52;14.70;99.90
25640;DHT22;13497;48.322;16.204;2022-10-31T11:50:23;14.60;99.90
25640;DHT22;13497;48.322;16.204;2022-10-31T11:52:50;14.60;99.90
25640;DHT22;13497;48.322;16.204;2022-10-31T11:57:55;14.70;99.90
25640;DHT22;13497;48.322;16.204;2022-10-31T12:03:03;14.60;99.90
25640;DHT22;13497;48.322;16.204;2022-10-31T12:05:30;14.70;99.90
25640;DHT22;13497;48.322;16.204;2022-10-31T12:07:58;14.60;99.90
25640;DHT22;13497;48.322;16.204;2022-10-31T12:10:31;14.60;99.90
25640;DHT22;13497;48.322;16.204;2022-10-31T12:16:00;14.60;99.90
25640;DHT22;13497;48.322;16.204;2022-10-31T12:19:04;14.60;99.90
25640;DHT22;13497;48.322;16.204;2022-10-31T12:21:41;14.40;99.90
25640;DHT22;13497;48.322;16.204;2022-10-31T12:24:35;14.30;99.90
25640;DHT22;13497;48.322;16.204;2022-10-31T12:27:09;14.20;99.90
25640;DHT22;13497;48.322;16.204;2022-10-31T12:34:56;14.20;99.90
25640;DHT22;13497;48.322;16.204;2022-10-31T12:38:10;14.10;99.90
25640;DHT22;13497;48.322;16.204;2022-10-31T12:40:38;14.00;99.90
25640;DHT22;13497;48.322;16.204;2022-10-31T12:46:00;14.00;99.90
25640;DHT22;13497;48.322;16.204;2022-10-31T12:57:00;13.70;99.90
25640;DHT22;13497;48.322;16.204;2022-10-31T12:59:40;13.70;99.90
25640;DHT22;13497;48.322;16.204;2022-10-31T13:04:55;14.00;99.90
25640;DHT22;13497;48.322;16.204;2022-10-31T13:07:46;14.00;99.90
25640;DHT22;13497;48.322;16.204;2022-10-31T13:12:51;14.00;99.90
25640;DHT22;13497;48.322;16.204;2022-10-31T13:15:30;14.00;99.90
25640;DHT22;13497;48.322;16.204;2022-10-31T13:18:01;13.90;99.90
25640;DHT22;13497;48.322;16.204;2022-10-31T13:20:32;13.80;99.90
25640;DHT22;13497;48.322;16.204;2022-10-31T13:23:19;13.80;99.90
25640;DHT22;13497;48.322;16.204;2022-10-31T13:25:51;13.80;99.90
25640;DHT22;13497;48.322;16.204;2022-10-31T13:28:38;13.80;99.90
25640;DHT22;13497;48.322;16.204;2022-10-31T13:31:06;13.80;99.90
25640;DHT22;13497;48.322;16.204;2022-10-31T13:33:39;13.80;99.90
25640;DHT22;13497;48.322;16.204;2022-10-31T13:41:57;13.70;99.90
25640;DHT22;13497;48.322;16.204;2022-10-31T13:44:27;13.50;99.90
25640;DHT22;13497;48.322;16.204;2022-10-31T13:46:55;13.50;99.90
25640;DHT22;13497;48.322;16.204;2022-10-31T13:52:25;13.70;99.90
25640;DHT22;13497;48.322;16.204;2022-10-31T13:54:55;13.70;99.90
25640;DHT22;13497;48.322;16.204;2022-10-31T13:57:37;13.50;99.90
25640;DHT22;13497;48.322;16.204;2022-10-31T14:00:06;13.40;99.90
25640;DHT22;13497;48.322;16.204;2022-10-31T14:02:35;13.40;99.90
25640;DHT22;13497;48.322;16.204;2022-10-31T14:05:15;13.50;99.90
25640;DHT22;13497;48.322;16.204;2022-10-31T14:07:45;13.50;99.90
25640;DHT22;13497;48.322;16.204;2022-10-31T14:10:35;13.40;99.90
25640;DHT22;13497;48.322;16.204;2022-10-31T14:13:14;13.20;99.90
25640;DHT22;13497;48.322;16.204;2022-10-31T14:16:00;13.20;99.90
25640;DHT22;13497;48.322;16.204;2022-10-31T14:18:32;13.20;99.90
25640;DHT22;13497;48.322;16.204;2022-10-31T14:20:58;13.30;99.90
25640;DHT22;13497;48.322;16.204;2022-10-31T14:28:49;13.50;99.90
25640;DHT22;13497;48.322;16.204;2022-10-31T14:31:29;13.60;99.90
25640;DHT22;13497;48.322;16.204;2022-10-31T14:33:59;13.60;99.90
25640;DHT22;13497;48.322;16.204;2022-10-31T14:36:39;13.50;99.90
25640;DHT22;13497;48.322;16.204;2022-10-31T14:39:15;13.40;99.90
25640;DHT22;13497;48.322;16.204;2022-10-31T14:42:42;13.30;99.90
25640;DHT22;13497;48.322;16.204;2022-10-31T14:47:51;13.50;99.90
25640;DHT22;13497;48.322;16.204;2022-10-31T14:52:52;13.50;99.90
25640;DHT22;13497;48.322;16.204;2022-10-31T14:55:19;13.50;99.90
25640;DHT22;13497;48.322;16.204;2022-10-31T14:58:01;13.50;99.90
25640;DHT22;13497;48.322;16.204;2022-10-31T15:00:28;13.50;99.90
25640;DHT22;13497;48.322;16.204;2022-10-31T15:03:33;13.60;99.90
25640;DHT22;13497;48.322;16.204;2022-10-31T15:06:03;13.60;99.90
25640;DHT22;13497;48.322;16.204;2022-10-31T15:08:40;13.60;99.90
25640;DHT22;13497;48.322;16.204;2022-10-31T15:11:18;13.50;99.90
25640;DHT22;13497;48.322;16.204;2022-10-31T15:13:48;13.60;99.90
25640;DHT22;13497;48.322;16.204;2022-10-31T15:16:16;13.60;99.90
25640;DHT22;13497;48.322;16.204;2022-10-31T15:18:50;13.50;99.90
25640;DHT22;13497;48.322;16.204;2022-10-31T15:21:17;13.60;99.90
25640;DHT22;13497;48.322;16.204;2022-10-31T15:23:43;13.50;99.90
25640;DHT22;13497;48.322;16.204;2022-10-31T15:26:17;13.50;99.90
25640;DHT22;13497;48.322;16.204;2022-10-31T15:28:44;13.40;99.90
25640;DHT22;13497;48.322;16.204;2022-10-31T15:31:16;13.40;99.90
25640;DHT22;13497;48.322;16.204;2022-10-31T15:33:44;13.30;99.90
25640;DHT22;13497;48.322;16.204;2022-10-31T15:36:24;13.30;99.90
25640;DHT22;13497;48.322;16.204;2022-10-31T15:38:51;13.30;99.90
25640;DHT22;13497;48.322;16.204;2022-10-31T15:44:14;13.20;99.90
25640;DHT22;13497;48.322;16.204;2022-10-31T15:46:40;13.10;99.90
25640;DHT22;13497;48.322;16.204;2022-10-31T15:49:38;13.00;99.90
25640;DHT22;13497;48.322;16.204;2022-10-31T15:54:52;13.00;99.90
25640;DHT22;13497;48.322;16.204;2022-10-31T15:57:19;13.10;99.90
25640;DHT22;13497;48.322;16.204;2022-10-31T15:59:48;13.20;99.90
25640;DHT22;13497;48.322;16.204;2022-10-31T16:02:18;13.30;99.90
25640;DHT22;13497;48.322;16.204;2022-10-31T16:05:00;13.30;99.90
25640;DHT22;13497;48.322;16.204;2022-10-31T16:07:28;13.20;99.90
25640;DHT22;13497;48.322;16.204;2022-10-31T16:12:22;13.10;99.90
25640;DHT22;13497;48.322;16.204;2022-10-31T16:14:50;13.10;99.90
25640;DHT22;13497;48.322;16.204;2022-10-31T16:17:20;13.10;99.90
25640;DHT22;13497;48.322;16.204;2022-10-31T16:20:00;13.00;99.90
25640;DHT22;13497;48.322;16.204;2022-10-31T16:22:37;13.00;99.90
25640;DHT22;13497;48.322;16.204;2022-10-31T16:25:12;13.00;99.90
25640;DHT22;13497;48.322;16.204;2022-10-31T16:27:40;13.00;99.90
25640;DHT22;13497;48.322;16.204;2022-10-31T16:32:58;13.10;99.90
25640;DHT22;13497;48.322;16.204;2022-10-31T16:35:35;13.20;99.90
25640;DHT22;13497;48.322;16.204;2022-10-31T16:38:01;13.10;99.90
25640;DHT22;13497;48.322;16.204;2022-10-31T16:40:27;13.10;99.90
25640;DHT22;13497;48.322;16.204;2022-10-31T16:42:53;13.20;99.90
25640;DHT22;13497;48.322;16.204;2022-10-31T16:45:23;13.10;99.90
25640;DHT22;13497;48.322;16.204;2022-10-31T16:47:49;13.10;99.90
25640;DHT22;13497;48.322;16.204;2022-10-31T16:50:24;13.00;99.90
25640;DHT22;13497;48.322;16.204;2022-10-31T16:52:50;13.00;99.90
25640;DHT22;13497;48.322;16.204;2022-10-31T16:55:19;13.00;99.90
25640;DHT22;13497;48.322;16.204;2022-10-31T16:57:54;12.90;99.90
25640;DHT22;13497;48.322;16.204;2022-10-31T17:00:22;12.90;99.90
25640;DHT22;13497;48.322;16.204;2022-10-31T17:02:50;12.90;99.90
25640;DHT22;13497;48.322;16.204;2022-10-31T17:05:18;12.90;99.90
25640;DHT22;13497;48.322;16.204;2022-10-31T17:07:44;12.90;99.90
25640;DHT22;13497;48.322;16.204;2022-10-31T17:10:11;12.90;99.90
25640;DHT22;13497;48.322;16.204;2022-10-31T17:12:40;12.90;99.90
25640;DHT22;13497;48.322;16.204;2022-10-31T17:15:26;12.90;99.90
25640;DHT22;13497;48.322;16.204;2022-10-31T17:17:53;12.90;99.90
25640;DHT22;13497;48.322;16.204;2022-10-31T17:20:28;13.00;99.90
25640;DHT22;13497;48.322;16.204;2022-10-31T17:22:55;13.00;99.90
25640;DHT22;13497;48.322;16.204;2022-10-31T17:25:22;13.00;99.90
25640;DHT22;13497;48.322;16.204;2022-10-31T17:27:49;12.70;99.90
25640;DHT22;13497;48.322;16.204;2022-10-31T17:30:16;12.70;99.90
25640;DHT22;13497;48.322;16.204;2022-10-31T17:32:43;12.60;99.90
25640;DHT22;13497;48.322;16.204;2022-10-31T17:35:10;12.60;99.90